Time;durP1;ratioP1;P1;durP2;ratioP2;P2;SDS_P1;SDS_P2;PMS_P1;PMS_P2;Temp;Humidity;BMP_temperature;BMP_pressure;BME280_temperature;BME280_humidity;BME280_pressure;Samples;Min_cycle;Max_cycle;Signal;HPM_P1;HPM_P2
2021/07/17 00:00:21;;;;;;;5.45;2.85;;;;;;;23.62;44.48;101818.28;6152656;23;20005;-82
2021/07/17 00:02:46;;;;;;;4.20;2.80;;;;;;;23.40;45.33;101830.31;6150723;23;20514;-82
2021/07/17 00:05:13;;;;;;;7.50;3.35;;;;;;;23.50;45.13;101832.72;6150305;23;20072;-82
2021/07/17 00:07:40;;;;;;;5.25;3.33;;;;;;;23.49;45.34;101840.13;6152309;23;20009;-82
2021/07/17 00:10:12;;;;;;;6.93;3.03;;;;;;;23.54;45.41;101847.75;6150789;23;20337;-82
2021/07/17 00:12:37;;;;;;;7.82;2.55;;;;;;;23.54;44.80;101839.53;6152705;23;20006;-82
2021/07/17 00:15:04;;;;;;;6.72;2.95;;;;;;;23.21;45.19;101834.53;6152635;23;20009;-82
2021/07/17 00:17:29;;;;;;;5.22;2.78;;;;;;;23.36;45.25;101835.34;6152334;23;20362;-82
2021/07/17 00:19:55;;;;;;;8.95;3.20;;;;;;;23.23;45.85;101842.56;6152767;23;20064;-82
2021/07/17 00:22:20;;;;;;;6.25;3.30;;;;;;;23.18;45.72;101837.66;6150703;23;20013;-82
2021/07/17 00:24:45;;;;;;;8.13;2.75;;;;;;;23.08;45.34;101839.81;6152436;23;20005;-82
2021/07/17 00:27:11;;;;;;;6.07;2.95;;;;;;;22.94;45.76;101842.41;6150731;23;20503;-82
2021/07/17 00:29:36;;;;;;;6.20;2.75;;;;;;;22.96;45.37;101836.75;6152047;23;20009;-82
2021/07/17 00:32:02;;;;;;;8.45;2.97;;;;;;;22.99;45.52;101843.72;6152206;23;20146;-82
2021/07/17 00:34:27;;;;;;;7.93;2.75;;;;;;;22.89;45.30;101836.59;6149859;23;20028;-82
2021/07/17 00:36:52;;;;;;;6.50;2.92;;;;;;;22.73;45.95;101844.19;6150483;23;20129;-82
2021/07/17 00:39:18;;;;;;;8.40;2.90;;;;;;;22.84;45.49;101847.31;6152188;23;20016;-82
2021/07/17 00:41:44;;;;;;;9.48;3.00;;;;;;;22.86;45.91;101841.63;6152507;23;20040;-82
2021/07/17 00:44:09;;;;;;;7.20;3.15;;;;;;;23.05;45.68;101849.31;6150209;23;20067;-82
2021/07/17 00:46:35;;;;;;;8.65;2.72;;;;;;;22.87;45.33;101857.91;6152243;23;20453;-82
2021/07/17 00:49:00;;;;;;;7.40;2.90;;;;;;;22.92;45.81;101852.69;6152331;23;20029;-82
2021/07/17 00:51:26;;;;;;;11.50;2.75;;;;;;;22.78;46.01;101848.06;6152079;23;20009;-81
2021/07/17 00:53:52;;;;;;;7.00;2.70;;;;;;;22.79;45.90;101858.00;6150382;23;20013;-81
2021/07/17 00:56:19;;;;;;;9.10;2.63;;;;;;;22.73;46.02;101856.00;6152812;23;20010;-82
2021/07/17 00:58:46;;;;;;;7.50;2.70;;;;;;;22.31;47.10;101857.47;6152148;23;20081;-82
2021/07/17 01:01:12;;;;;;;10.77;3.28;;;;;;;22.46;46.99;101861.06;6152025;23;20101;-82
2021/07/17 01:03:38;;;;;;;9.90;2.58;;;;;;;22.41;47.32;101860.81;6151920;23;20100;-82
2021/07/17 01:06:04;;;;;;;9.55;3.22;;;;;;;22.24;47.40;101867.47;6149923;23;20041;-82
2021/07/17 01:08:29;;;;;;;11.00;3.38;;;;;;;22.33;47.52;101863.63;6153753;23;20017;-82
2021/07/17 01:10:55;;;;;;;11.57;3.40;;;;;;;22.02;48.45;101871.91;6152200;23;20009;-82
2021/07/17 01:13:20;;;;;;;9.48;2.90;;;;;;;21.90;49.17;101865.16;6153744;23;20016;-82
2021/07/17 01:15:46;;;;;;;13.93;3.50;;;;;;;22.10;48.57;101871.88;6154108;23;20009;-82
2021/07/17 01:18:12;;;;;;;15.35;3.47;;;;;;;21.97;48.77;101866.13;6151902;23;20009;-81
2021/07/17 01:20:38;;;;;;;8.20;3.20;;;;;;;22.10;48.82;101869.13;6153899;23;20055;-82
2021/07/17 01:23:04;;;;;;;12.70;3.22;;;;;;;22.06;49.22;101867.75;6151498;23;20456;-81
2021/07/17 01:25:32;;;;;;;11.73;2.97;;;;;;;22.03;49.38;101877.19;6153793;23;20040;-82
2021/07/17 01:27:58;;;;;;;11.80;3.33;;;;;;;22.01;49.69;101873.81;6153601;23;20009;-82
2021/07/17 01:30:30;;;;;;;11.65;3.15;;;;;;;21.86;50.09;101861.09;6153227;23;20009;-82
2021/07/17 01:32:55;;;;;;;9.70;3.10;;;;;;;21.59;50.99;101865.22;6153936;23;20428;-82
2021/07/17 01:35:21;;;;;;;9.98;3.17;;;;;;;21.79;50.82;101858.22;6153713;23;20045;-82
2021/07/17 01:37:46;;;;;;;11.40;2.78;;;;;;;21.76;50.93;101861.31;6153319;23;20064;-81
2021/07/17 01:40:18;;;;;;;10.02;2.67;;;;;;;21.79;50.84;101864.56;6153346;23;20005;-82
2021/07/17 01:42:45;;;;;;;15.65;4.18;;;;;;;21.59;51.41;101859.75;6153810;23;20033;-82
2021/07/17 01:45:19;;;;;;;9.80;3.70;;;;;;;21.63;51.26;101859.19;6151219;23;20436;-82
2021/07/17 01:47:44;;;;;;;10.68;3.97;;;;;;;21.66;51.34;101856.09;6153410;23;20020;-82
2021/07/17 01:50:10;;;;;;;11.52;3.40;;;;;;;21.63;51.59;101858.34;6153142;23;20096;-81
2021/07/17 01:52:35;;;;;;;14.57;4.05;;;;;;;21.66;51.55;101857.97;6152976;23;20334;-82
2021/07/17 01:55:00;;;;;;;8.93;3.70;;;;;;;21.60;51.83;101861.44;6151105;23;20014;-82
2021/07/17 01:57:26;;;;;;;12.60;4.00;;;;;;;21.55;52.12;101862.00;6153005;23;20013;-82
2021/07/17 01:59:51;;;;;;;14.18;4.10;;;;;;;21.48;52.53;101861.84;6153103;23;20009;-81
2021/07/17 02:02:16;;;;;;;10.13;3.90;;;;;;;21.31;53.45;101865.69;6151101;23;20040;-81
2021/07/17 02:04:41;;;;;;;10.70;3.53;;;;;;;21.33;53.82;101861.75;6152627;23;20017;-82
2021/07/17 02:07:07;;;;;;;12.90;4.47;;;;;;;21.35;53.85;101856.09;6151248;23;20010;-82
2021/07/17 02:09:36;;;;;;;13.27;4.15;;;;;;;21.23;54.20;101860.25;6153185;23;20006;-81
2021/07/17 02:12:05;;;;;;;9.23;3.58;;;;;;;21.35;53.90;101856.09;6152860;23;20342;-81
2021/07/17 02:14:38;;;;;;;13.15;3.90;;;;;;;21.29;54.11;101854.06;6152519;23;20056;-81
2021/07/17 02:17:05;;;;;;;14.75;4.28;;;;;;;21.09;55.24;101857.25;6152669;23;20011;-82
2021/07/17 02:19:30;;;;;;;16.73;4.10;;;;;;;21.12;55.21;101858.78;6152599;23;20009;-82
2021/07/17 02:21:55;;;;;;;11.93;4.30;;;;;;;21.03;55.94;101859.84;6153395;23;20036;-82
2021/07/17 02:24:21;;;;;;;12.88;4.13;;;;;;;20.98;56.13;101852.16;6152629;23;20006;-81
2021/07/17 02:26:47;;;;;;;13.02;4.70;;;;;;;20.85;56.81;101854.63;6152836;23;20012;-81
2021/07/17 02:29:13;;;;;;;18.23;4.30;;;;;;;21.04;56.24;101859.66;6152611;23;20013;-81
2021/07/17 02:31:41;;;;;;;19.92;4.85;;;;;;;20.97;56.82;101855.94;6152996;23;20468;-82
2021/07/17 02:34:10;;;;;;;20.85;5.13;;;;;;;21.09;56.57;101845.47;6153430;23;20009;-82
2021/07/17 02:36:36;;;;;;;17.02;4.65;;;;;;;21.19;56.06;101854.28;6150596;23;20067;-82
2021/07/17 02:39:01;;;;;;;18.15;5.65;;;;;;;21.15;56.52;101863.91;6150296;23;20096;-81
2021/07/17 02:41:27;;;;;;;14.80;4.35;;;;;;;21.03;56.91;101857.13;6152505;23;20009;-82
2021/07/17 02:43:53;;;;;;;16.10;5.00;;;;;;;21.08;56.84;101852.78;6152876;23;20006;-82
2021/07/17 02:46:18;;;;;;;17.65;5.00;;;;;;;20.99;57.33;101853.00;6152406;23;20006;-82
2021/07/17 02:48:44;;;;;;;14.85;4.53;;;;;;;20.97;57.59;101850.47;6152714;23;20350;-82
2021/07/17 02:51:09;;;;;;;19.05;4.93;;;;;;;20.97;57.66;101850.47;6152954;23;20005;-81
2021/07/17 02:53:35;;;;;;;14.55;4.70;;;;;;;21.05;57.26;101849.56;6152555;23;20005;-82
2021/07/17 02:56:00;;;;;;;14.75;4.72;;;;;;;20.95;57.71;101847.03;6152507;23;20342;-82
2021/07/17 02:58:26;;;;;;;12.65;5.18;;;;;;;20.96;57.82;101836.94;6152910;23;20319;-81
2021/07/17 03:00:54;;;;;;;18.05;4.78;;;;;;;20.87;58.41;101839.72;6152818;23;20009;-81
2021/07/17 03:03:21;;;;;;;21.45;4.68;;;;;;;20.85;58.28;101843.69;6152571;23;20312;-81
2021/07/17 03:05:47;;;;;;;21.17;4.88;;;;;;;20.80;58.56;101835.97;6152432;23;20037;-81
2021/07/17 03:08:24;;;;;;;19.58;4.82;;;;;;;20.69;59.14;101833.63;6150540;23;20009;-81
2021/07/17 03:10:51;;;;;;;19.40;5.07;;;;;;;20.73;59.10;101848.66;6150434;23;20096;-82
2021/07/17 03:13:16;;;;;;;17.70;4.57;;;;;;;20.65;59.34;101840.47;6150504;23;20013;-81
2021/07/17 03:15:42;;;;;;;20.90;6.20;;;;;;;20.43;59.91;101840.16;6152917;23;20005;-82
2021/07/17 03:18:09;;;;;;;16.17;4.88;;;;;;;20.19;60.85;101834.72;6152503;23;20040;-82
2021/07/17 03:20:34;;;;;;;17.63;4.97;;;;;;;20.30;60.73;101839.00;6150698;23;20103;-82
2021/07/17 03:23:00;;;;;;;18.38;4.80;;;;;;;19.92;61.77;101839.50;6152573;23;20043;-81
2021/07/17 03:25:25;;;;;;;19.63;5.43;;;;;;;20.16;61.41;101833.19;6150216;23;20346;-82
2021/07/17 03:27:51;;;;;;;18.85;5.53;;;;;;;20.19;61.07;101837.47;6152126;23;20067;-81
2021/07/17 03:30:17;;;;;;;16.55;4.55;;;;;;;20.22;61.06;101828.91;6152064;23;20039;-81
2021/07/17 03:32:42;;;;;;;15.50;5.22;;;;;;;20.13;61.49;101839.00;6152288;23;20486;-82
2021/07/17 03:35:08;;;;;;;14.05;5.13;;;;;;;20.24;61.16;101836.97;6152496;23;20013;-82
2021/07/17 03:37:33;;;;;;;17.65;5.10;;;;;;;20.27;61.21;101837.47;6150365;23;20083;-81
2021/07/17 03:39:59;;;;;;;17.95;5.30;;;;;;;20.24;61.55;101842.41;6151968;23;20005;-81
2021/07/17 03:42:24;;;;;;;12.57;4.38;;;;;;;20.17;61.69;101836.75;6151982;23;20010;-82
2021/07/17 03:44:49;;;;;;;14.20;5.18;;;;;;;20.27;61.30;101839.34;6151850;23;20005;-81
2021/07/17 03:47:15;;;;;;;22.10;5.63;;;;;;;20.24;61.35;101840.53;6152748;23;20009;-81
2021/07/17 03:49:40;;;;;;;18.52;4.65;;;;;;;20.25;61.68;101841.38;6152185;23;20015;-82
2021/07/17 03:52:06;;;;;;;17.55;4.88;;;;;;;20.37;61.38;101842.72;6152055;23;20006;-82
2021/07/17 03:54:31;;;;;;;18.98;4.78;;;;;;;20.08;62.27;101835.94;6152538;23;20011;-81
2021/07/17 03:56:56;;;;;;;17.88;4.43;;;;;;;20.27;61.60;101832.00;6152232;23;20017;-81
2021/07/17 03:59:22;;;;;;;13.75;4.63;;;;;;;20.30;61.43;101833.53;6149810;23;20013;-82
2021/07/17 04:01:47;;;;;;;24.60;4.97;;;;;;;20.30;61.71;101839.84;6152052;23;20013;-82
2021/07/17 04:04:13;;;;;;;18.08;4.78;;;;;;;20.38;61.16;101836.22;6152509;23;20001;-82
2021/07/17 04:06:40;;;;;;;18.63;5.53;;;;;;;20.37;61.12;101838.13;6151888;23;20029;-82
2021/07/17 04:09:05;;;;;;;18.67;4.82;;;;;;;20.47;61.04;101837.06;6152316;23;20009;-81
2021/07/17 04:11:30;;;;;;;21.70;5.03;;;;;;;20.28;61.71;101836.41;6152271;23;20095;-82
2021/07/17 04:13:56;;;;;;;17.88;4.82;;;;;;;20.29;61.85;101834.53;6151770;23;20005;-82
2021/07/17 04:16:21;;;;;;;19.95;5.85;;;;;;;20.38;61.36;101833.50;6150099;23;20021;-81
2021/07/17 04:18:47;;;;;;;19.90;5.72;;;;;;;20.52;61.03;101834.72;6152055;23;20044;-81
2021/07/17 04:21:12;;;;;;;15.90;4.55;;;;;;;20.58;60.77;101829.41;6151856;23;20089;-82
2021/07/17 04:23:42;;;;;;;13.30;4.68;;;;;;;20.64;60.90;101831.44;6152036;23;20001;-82
2021/07/17 04:26:08;;;;;;;15.85;4.60;;;;;;;20.57;61.10;101824.97;6151694;23;20005;-81
2021/07/17 04:28:34;;;;;;;19.20;4.07;;;;;;;20.73;60.73;101823.22;6151953;23;20005;-82
2021/07/17 04:31:00;;;;;;;19.13;5.13;;;;;;;20.69;60.83;101825.41;6150019;23;20017;-82
2021/07/17 04:33:25;;;;;;;20.15;4.78;;;;;;;20.53;61.42;101828.22;6150186;23;20009;-81
2021/07/17 04:35:51;;;;;;;20.77;4.70;;;;;;;20.71;60.77;101834.31;6150064;23;20064;-82
2021/07/17 04:38:16;;;;;;;18.15;4.72;;;;;;;20.80;60.79;101821.47;6151838;23;20005;-82
2021/07/17 04:40:41;;;;;;;21.13;5.13;;;;;;;20.64;61.12;101827.84;6152240;23;20104;-82
2021/07/17 04:43:07;;;;;;;18.02;4.68;;;;;;;20.47;62.06;101823.41;6154027;23;20025;-81
2021/07/17 04:45:33;;;;;;;15.40;4.82;;;;;;;20.53;62.02;101828.22;6153821;23;20006;-82
2021/07/17 04:48:03;;;;;;;21.73;5.18;;;;;;;20.52;62.16;101827.38;6154326;23;20065;-82
2021/07/17 04:50:29;;;;;;;18.30;4.90;;;;;;;20.64;61.98;101823.22;6154344;23;20079;-82
2021/07/17 04:52:54;;;;;;;19.80;5.15;;;;;;;20.65;61.76;101821.34;6153781;23;20009;-82
2021/07/17 04:55:19;;;;;;;15.48;4.20;;;;;;;20.56;62.49;101825.13;6151460;23;20386;-82
2021/07/17 04:57:45;;;;;;;15.77;4.18;;;;;;;20.50;62.29;101829.38;6153474;23;20005;-82
2021/07/17 05:00:12;;;;;;;28.80;5.82;;;;;;;20.60;62.25;101827.34;6153893;23;20088;-82
2021/07/17 05:02:52;;;;;;;24.23;4.97;;;;;;;20.71;61.94;101828.84;6154162;23;20005;-81
2021/07/17 05:05:19;;;;;;;22.00;4.57;;;;;;;20.74;61.93;101816.69;6154225;23;20018;-82
2021/07/17 05:07:48;;;;;;;15.82;4.40;;;;;;;20.86;61.51;101832.53;6153626;23;20009;-82
2021/07/17 05:10:17;;;;;;;16.92;4.95;;;;;;;20.76;62.19;101836.53;6151741;23;20501;-81
2021/07/17 05:12:42;;;;;;;17.95;5.20;;;;;;;20.83;61.91;101843.00;6151440;23;20036;-81
2021/07/17 05:15:09;;;;;;;17.13;4.65;;;;;;;20.89;61.91;101826.72;6153841;23;20012;-82
2021/07/17 05:17:34;;;;;;;14.68;4.60;;;;;;;20.93;61.23;101824.47;6151242;23;20001;-82
2021/07/17 05:20:00;;;;;;;14.60;4.03;;;;;;;20.93;61.64;101829.09;6151835;23;20135;-82
2021/07/17 05:22:25;;;;;;;17.92;3.80;;;;;;;21.05;61.50;101836.72;6151555;23;20041;-82
2021/07/17 05:24:51;;;;;;;19.15;5.38;;;;;;;20.93;62.29;101829.94;6153583;23;20006;-82
2021/07/17 05:27:16;;;;;;;14.20;4.05;;;;;;;20.87;62.52;101838.84;6153088;23;20114;-82
2021/07/17 05:29:42;;;;;;;12.43;3.83;;;;;;;21.01;61.95;101835.38;6153715;23;20405;-81
2021/07/17 05:32:07;;;;;;;19.35;5.45;;;;;;;20.88;62.05;101835.13;6153814;23;20011;-82
2021/07/17 05:34:32;;;;;;;19.92;4.03;;;;;;;20.90;62.16;101841.25;6151512;23;20016;-82
2021/07/17 05:36:57;;;;;;;16.10;4.50;;;;;;;20.75;62.69;101835.66;6153895;23;20016;-82
2021/07/17 05:39:23;;;;;;;18.13;4.03;;;;;;;20.95;62.02;101833.38;6153183;23;20005;-81
2021/07/17 05:41:48;;;;;;;16.23;4.82;;;;;;;20.86;62.20;101829.81;6151411;23;20506;-82
2021/07/17 05:44:13;;;;;;;14.85;4.32;;;;;;;20.87;62.60;101836.13;6152863;23;20001;-81
2021/07/17 05:46:40;;;;;;;16.95;4.90;;;;;;;21.07;61.98;101828.38;6153392;23;20128;-81
2021/07/17 05:49:05;;;;;;;17.17;4.93;;;;;;;20.89;62.28;101842.28;6153323;23;20424;-81
2021/07/17 05:51:30;;;;;;;14.05;4.28;;;;;;;20.96;62.15;101835.06;6153563;23;20023;-82
2021/07/17 05:53:56;;;;;;;21.15;4.50;;;;;;;21.01;61.88;101831.81;6151593;23;20064;-81
2021/07/17 05:56:21;;;;;;;20.73;5.22;;;;;;;21.14;61.59;101836.69;6153597;23;20044;-81
2021/07/17 05:58:46;;;;;;;13.48;3.40;;;;;;;21.18;61.47;101835.31;6153240;23;20387;-82
2021/07/17 06:01:12;;;;;;;13.10;3.50;;;;;;;21.19;61.33;101837.88;6153462;23;20453;-82
2021/07/17 06:03:38;;;;;;;13.90;3.90;;;;;;;21.22;61.28;101837.53;6151418;23;20010;-82
2021/07/17 06:06:04;;;;;;;18.75;4.20;;;;;;;21.17;61.45;101839.94;6152876;23;20021;-81
2021/07/17 06:08:29;;;;;;;11.30;2.85;;;;;;;21.25;61.18;101834.41;6151075;23;20338;-82
2021/07/17 06:10:55;;;;;;;17.35;4.20;;;;;;;20.97;62.30;101834.06;6154161;23;20009;-82
2021/07/17 06:13:20;;;;;;;16.17;4.10;;;;;;;21.16;61.68;101831.91;6152722;23;20442;-81
2021/07/17 06:15:45;;;;;;;21.27;4.05;;;;;;;21.38;61.15;101843.97;6153499;23;20008;-81
2021/07/17 06:18:10;;;;;;;18.52;4.00;;;;;;;21.38;60.73;101844.81;6153413;23;20006;-82
2021/07/17 06:20:36;;;;;;;13.90;3.33;;;;;;;21.39;60.28;101835.56;6153228;23;20012;-81
2021/07/17 06:23:01;;;;;;;16.77;3.60;;;;;;;21.37;60.82;101848.59;6153115;23;20040;-82
2021/07/17 06:25:26;;;;;;;15.52;3.33;;;;;;;21.39;60.17;101842.91;6153050;23;20059;-82
2021/07/17 06:27:52;;;;;;;15.88;3.60;;;;;;;21.55;59.77;101842.84;6153310;23;20009;-82
2021/07/17 06:30:17;;;;;;;8.45;2.45;;;;;;;21.67;59.00;101835.91;6152535;23;20009;-82
2021/07/17 06:32:43;;;;;;;14.35;3.38;;;;;;;21.66;59.11;101839.66;6153362;23;20009;-82
2021/07/17 06:35:09;;;;;;;12.43;3.45;;;;;;;21.69;58.34;101843.94;6153217;23;20006;-81
2021/07/17 06:37:40;;;;;;;16.08;3.58;;;;;;;21.78;58.88;101845.56;6153202;23;20018;-82
2021/07/17 06:40:07;;;;;;;11.05;2.88;;;;;;;21.75;58.07;101843.19;6150793;23;20439;-82
2021/07/17 06:42:32;;;;;;;10.60;2.50;;;;;;;21.70;57.88;101842.88;6150705;23;20354;-82
2021/07/17 06:44:57;;;;;;;11.18;3.30;;;;;;;21.83;57.60;101850.50;6152820;23;20001;-82
2021/07/17 06:47:22;;;;;;;9.50;3.45;;;;;;;21.86;57.06;101850.16;6153053;23;20092;-82
2021/07/17 06:49:48;;;;;;;9.93;2.90;;;;;;;21.93;57.12;101853.84;6153646;23;20016;-82
2021/07/17 06:52:13;;;;;;;7.60;2.65;;;;;;;21.96;57.49;101853.47;6150755;23;20041;-82
2021/07/17 06:54:38;;;;;;;13.48;2.50;;;;;;;21.88;57.02;101856.28;6150604;23;20016;-82
2021/07/17 06:57:04;;;;;;;14.02;2.78;;;;;;;21.96;56.84;101850.75;6152930;23;20017;-82
2021/07/17 06:59:29;;;;;;;8.02;2.65;;;;;;;21.93;56.26;101846.47;6152562;23;20434;-82
2021/07/17 07:01:54;;;;;;;7.90;2.58;;;;;;;22.08;56.41;101852.00;6152967;23;20012;-82
2021/07/17 07:04:20;;;;;;;11.63;2.22;;;;;;;22.14;56.24;101855.91;6149856;23;20009;-82
2021/07/17 07:06:45;;;;;;;8.38;2.53;;;;;;;22.10;55.79;101860.03;6157125;23;20336;-82
2021/07/17 07:09:10;;;;;;;9.48;2.25;;;;;;;22.08;55.83;101862.97;6152553;23;20110;-82
2021/07/17 07:11:39;;;;;;;10.65;2.53;;;;;;;22.05;55.09;101857.00;6152568;23;20005;-82
2021/07/17 07:14:04;;;;;;;9.85;2.97;;;;;;;22.21;55.03;101852.25;6154065;23;20009;-82
2021/07/17 07:16:30;;;;;;;10.07;2.75;;;;;;;22.32;55.33;101856.44;6152796;23;20326;-82
2021/07/17 07:18:55;;;;;;;11.23;2.35;;;;;;;22.37;54.69;101859.47;6150994;23;20489;-82
2021/07/17 07:21:21;;;;;;;8.10;1.80;;;;;;;22.41;54.41;101860.81;6150649;23;20017;-82
2021/07/17 07:23:46;;;;;;;8.18;2.05;;;;;;;22.51;54.31;101854.22;6150757;23;20013;-82
2021/07/17 07:26:11;;;;;;;9.85;2.42;;;;;;;22.37;53.29;101855.88;6152651;23;20005;-81
2021/07/17 07:28:37;;;;;;;7.00;2.47;;;;;;;22.33;53.18;101866.34;6150256;23;20350;-81
2021/07/17 07:31:02;;;;;;;9.95;2.90;;;;;;;22.46;52.88;101850.13;6150300;23;20100;-82
2021/07/17 07:33:28;;;;;;;3.75;1.80;;;;;;;22.53;53.48;101849.38;6150647;23;20020;-82
2021/07/17 07:35:53;;;;;;;7.65;2.40;;;;;;;22.59;53.52;101841.28;6152433;23;20334;-81
2021/07/17 07:38:18;;;;;;;7.45;2.15;;;;;;;22.58;53.23;101850.50;6152380;23;19997;-82
2021/07/17 07:40:43;;;;;;;4.43;1.80;;;;;;;22.64;53.13;101847.03;6152455;23;20005;-82
2021/07/17 07:43:10;;;;;;;8.45;2.83;;;;;;;22.57;53.10;101839.75;6152327;23;20057;-82
2021/07/17 07:45:35;;;;;;;9.75;2.10;;;;;;;22.66;52.18;101849.59;6152306;23;20008;-82
2021/07/17 07:48:01;;;;;;;11.75;2.28;;;;;;;22.69;53.01;101850.06;6150315;23;20013;-82
2021/07/17 07:50:26;;;;;;;9.15;2.30;;;;;;;22.75;53.66;101842.97;6153209;23;20012;-82
2021/07/17 07:52:51;;;;;;;6.97;1.88;;;;;;;22.77;53.96;101854.56;6152986;23;20021;-82
2021/07/17 07:55:17;;;;;;;9.75;2.92;;;;;;;22.81;53.11;101852.34;6152358;23;20009;-82
2021/07/17 07:57:42;;;;;;;9.13;3.67;;;;;;;22.98;53.24;101847.53;6152791;23;20010;-82
2021/07/17 08:00:10;;;;;;;9.98;2.88;;;;;;;22.90;53.42;101845.72;6151846;23;20005;-82
2021/07/17 08:02:35;;;;;;;10.30;2.38;;;;;;;22.92;53.83;101846.34;6153012;23;20431;-81
2021/07/17 08:05:00;;;;;;;11.65;2.50;;;;;;;22.83;52.41;101851.06;6152029;23;20018;-82
2021/07/17 08:07:26;;;;;;;7.88;2.40;;;;;;;22.89;52.17;101846.72;6152844;23;20077;-81
2021/07/17 08:09:51;;;;;;;7.38;2.92;;;;;;;22.96;53.46;101852.34;6152755;23;20013;-82
2021/07/17 08:12:17;;;;;;;9.82;2.60;;;;;;;23.00;52.99;101839.97;6152718;23;20085;-81
2021/07/17 08:14:42;;;;;;;10.65;2.97;;;;;;;23.00;53.72;101843.53;6150931;23;20006;-82
2021/07/17 08:17:08;;;;;;;10.35;2.85;;;;;;;22.99;53.59;101838.22;6151900;23;20418;-82
2021/07/17 08:19:34;;;;;;;14.38;2.45;;;;;;;23.05;53.71;101840.22;6152252;23;20037;-82
2021/07/17 08:21:59;;;;;;;9.30;4.22;;;;;;;22.93;52.76;101846.19;6152393;23;20009;-82
2021/07/17 08:24:25;;;;;;;10.50;2.63;;;;;;;23.08;52.80;101840.72;6152400;23;20063;-82
2021/07/17 08:26:50;;;;;;;8.63;2.25;;;;;;;23.06;52.32;101847.44;6153211;23;20013;-82
2021/07/17 08:29:15;;;;;;;9.32;2.60;;;;;;;23.20;52.30;101841.03;6152679;23;20037;-82
2021/07/17 08:31:41;;;;;;;15.57;3.85;;;;;;;23.23;52.38;101845.28;6152386;23;20020;-82
2021/07/17 08:34:06;;;;;;;9.07;2.70;;;;;;;23.31;52.49;101845.19;6150312;23;20335;-82
2021/07/17 08:36:32;;;;;;;9.73;2.65;;;;;;;23.27;53.21;101839.25;6152868;23;20017;-82
2021/07/17 08:38:57;;;;;;;11.32;3.75;;;;;;;23.34;52.91;101834.66;6148317;23;20020;-82
2021/07/17 08:41:26;;;;;;;11.05;2.75;;;;;;;23.36;53.28;101840.00;6152292;23;20012;-82
2021/07/17 08:43:54;;;;;;;7.95;2.30;;;;;;;23.33;52.22;101841.22;6152993;23;20370;-82
2021/07/17 08:46:21;;;;;;;8.85;2.92;;;;;;;23.34;52.08;101842.06;6152499;23;20005;-82
2021/07/17 08:48:48;;;;;;;9.07;2.88;;;;;;;23.42;51.97;101836.47;6151936;23;20005;-82
2021/07/17 08:51:14;;;;;;;7.68;2.33;;;;;;;23.42;51.21;101843.81;6152640;23;20017;-82
2021/07/17 08:53:41;;;;;;;9.32;2.88;;;;;;;23.45;51.89;101844.31;6152225;23;20428;-82
2021/07/17 08:56:07;;;;;;;11.52;3.42;;;;;;;23.52;52.12;101838.88;6152383;23;20016;-82
2021/07/17 08:58:32;;;;;;;10.13;3.20;;;;;;;23.53;51.73;101846.06;6152348;23;20009;-82
2021/07/17 09:00:59;;;;;;;14.55;2.22;;;;;;;23.54;50.95;101843.16;6152165;23;20005;-82
2021/07/17 09:03:24;;;;;;;7.35;2.75;;;;;;;23.48;50.50;101845.78;6152025;23;20080;-82
2021/07/17 09:05:50;;;;;;;11.82;2.35;;;;;;;23.52;50.39;101841.63;6151911;23;20421;-82
2021/07/17 09:08:17;;;;;;;12.20;2.80;;;;;;;23.49;50.82;101851.09;6150392;23;20088;-82
2021/07/17 09:10:49;;;;;;;8.20;2.55;;;;;;;23.55;51.50;101850.34;6152451;23;20158;-82
2021/07/17 09:13:21;;;;;;;11.52;3.22;;;;;;;23.56;50.61;101837.44;6149975;23;20159;-82
2021/07/17 09:16:09;;;;;;;9.32;2.38;;;;;;;23.65;49.13;101830.78;6151876;23;20005;-82
2021/07/17 09:18:38;;;;;;;14.00;3.63;;;;;;;23.81;49.29;101832.44;6152028;23;20012;-82
2021/07/17 09:21:16;;;;;;;10.73;2.33;;;;;;;23.72;49.93;101836.38;6152237;23;20009;-82
2021/07/17 09:23:44;;;;;;;10.15;2.08;;;;;;;23.76;50.07;101830.31;6150023;23;20020;-82
2021/07/17 09:26:33;;;;;;;10.38;2.28;;;;;;;23.81;49.44;101833.31;6152325;23;20430;-82
2021/07/17 09:29:01;;;;;;;10.27;2.47;;;;;;;23.97;49.69;101829.44;6153845;23;20009;-82
2021/07/17 09:31:29;;;;;;;8.05;1.92;;;;;;;23.92;49.06;101828.34;6153857;23;20009;-81
2021/07/17 09:34:12;;;;;;;8.02;2.95;;;;;;;23.93;48.08;101832.78;6153380;23;20415;-82
2021/07/17 09:37:00;;;;;;;8.77;2.15;;;;;;;23.92;47.94;101822.84;6152573;23;20072;-82
2021/07/17 09:39:33;;;;;;;6.88;2.25;;;;;;;23.95;46.85;101834.28;6153691;23;20016;-82
2021/07/17 09:42:11;;;;;;;8.43;2.38;;;;;;;23.94;46.87;101818.00;6154121;23;20016;-82
2021/07/17 09:44:37;;;;;;;7.68;2.45;;;;;;;24.02;47.70;101828.84;6154135;23;20425;-82
2021/07/17 09:47:17;;;;;;;10.38;2.47;;;;;;;24.06;47.46;101832.91;6153339;23;20461;-82
2021/07/17 09:49:43;;;;;;;5.63;2.10;;;;;;;24.10;46.96;101823.22;6153501;23;20005;-82
2021/07/17 09:52:13;;;;;;;6.40;1.83;;;;;;;24.18;47.29;101819.44;6153707;23;20009;-82
2021/07/17 09:54:40;;;;;;;9.63;2.95;;;;;;;24.12;46.19;101831.25;6155748;23;20355;-82
2021/07/17 09:57:06;;;;;;;8.43;1.95;;;;;;;24.22;45.86;101810.63;6153987;23;20006;-82
2021/07/17 09:59:31;;;;;;;8.20;1.65;;;;;;;24.27;45.21;101813.63;6152996;23;20009;-82
2021/07/17 10:01:57;;;;;;;7.05;1.90;;;;;;;24.35;46.16;101814.50;6153617;23;20009;-82
2021/07/17 10:04:22;;;;;;;8.05;1.70;;;;;;;24.35;46.13;101815.34;6153003;23;20021;-82
2021/07/17 10:06:59;;;;;;;7.57;2.25;;;;;;;24.29;45.82;101810.66;6153428;23;20032;-82
2021/07/17 10:09:30;;;;;;;6.18;2.10;;;;;;;24.41;44.97;101816.47;6155210;23;20006;-82
2021/07/17 10:12:02;;;;;;;6.70;1.50;;;;;;;24.35;45.01;101812.59;6157724;23;20335;-82
2021/07/17 10:14:33;;;;;;;5.32;2.03;;;;;;;24.45;45.52;101815.88;6152981;23;20017;-82
2021/07/17 10:17:03;;;;;;;5.05;1.50;;;;;;;24.54;45.77;101813.81;6153600;23;20005;-82
2021/07/17 10:19:29;;;;;;;4.03;1.48;;;;;;;24.58;44.96;101808.75;6153285;23;20002;-82
2021/07/17 10:21:55;;;;;;;8.82;1.85;;;;;;;24.49;44.59;101810.84;6153423;23;20056;-82
2021/07/17 10:24:22;;;;;;;5.40;1.42;;;;;;;24.65;44.89;101812.41;6153438;23;20016;-82
2021/07/17 10:26:51;;;;;;;8.57;2.15;;;;;;;24.67;44.95;101818.53;6151164;23;20009;-82
2021/07/17 10:29:17;;;;;;;4.80;1.50;;;;;;;24.77;45.21;101814.38;6151543;23;20453;-82
2021/07/17 10:31:43;;;;;;;7.20;2.00;;;;;;;24.74;45.26;101819.44;6153283;23;20382;-82
2021/07/17 10:34:10;;;;;;;7.05;1.90;;;;;;;24.81;44.85;101813.97;6153159;23;20481;-82
2021/07/17 10:36:41;;;;;;;7.82;1.70;;;;;;;24.93;44.51;101809.59;6153199;23;20465;-82
2021/07/17 10:39:09;;;;;;;8.80;1.77;;;;;;;25.05;44.88;101809.84;6152722;23;20009;-81
2021/07/17 10:41:38;;;;;;;6.97;1.52;;;;;;;25.00;44.22;101813.22;6153092;23;20009;-82
2021/07/17 10:44:04;;;;;;;9.13;1.50;;;;;;;25.00;43.69;101810.47;6150306;23;20008;-82
2021/07/17 10:46:36;;;;;;;5.53;1.83;;;;;;;25.06;42.80;101804.13;6152681;23;20009;-82
2021/07/17 10:49:04;;;;;;;4.88;1.45;;;;;;;25.03;42.91;101812.78;6150808;23;20362;-82
2021/07/17 10:51:34;;;;;;;8.13;1.50;;;;;;;25.24;43.38;101811.00;6152708;23;20334;-82
2021/07/17 10:54:04;;;;;;;9.40;1.45;;;;;;;25.18;42.53;101810.78;6152850;23;20006;-81
2021/07/17 10:56:34;;;;;;;6.18;1.73;;;;;;;25.24;42.27;101813.75;6153056;23;20028;-82
2021/07/17 10:59:23;;;;;;;4.82;1.30;;;;;;;25.34;40.99;101809.53;6150867;23;20009;-82
2021/07/17 11:01:55;;;;;;;4.20;2.08;;;;;;;25.41;42.62;101820.59;6121429;23;20346;-82
2021/07/17 11:04:46;;;;;;;4.03;1.50;;;;;;;25.34;42.67;101815.03;6150480;23;20346;-82
2021/07/17 11:07:18;;;;;;;6.60;1.88;;;;;;;25.56;42.91;101823.16;6152663;23;20052;-82
2021/07/17 11:10:12;;;;;;;8.15;1.80;;;;;;;25.41;43.43;101821.44;6152757;23;20068;-82
2021/07/17 11:12:43;;;;;;;4.53;1.73;;;;;;;25.54;43.67;101819.78;6153387;23;20064;-82
2021/07/17 11:15:08;;;;;;;5.47;1.60;;;;;;;25.53;43.32;101807.91;6152349;23;20025;-82
2021/07/17 11:17:43;;;;;;;3.57;1.90;;;;;;;25.54;43.30;101819.78;6152952;23;20080;-82